Etusivu
METAR-TAF:

METAR-TAF

Lentoasemat :

Rørvik, Norja

Leveyspiiri: 64-50N, Pituuspiiri: 011-09E, korkeus merenpinnasta: 4 m

Tämänhetkinen sää

Tämä raportti tehtiin 25 tuntia ja 11 minuuttia sitten, kello 08.50 UTC
Tuuli 5 kn idästä
Lämpötila 2°C
Kosteus 69%
Ilmanpaine 1016 hPa
Näkyvyys 10 km tai enemmän
ei pilviä alle 1500 m:ssä eikä cumulonimbus-pilviä

METAR: ENRM 160850Z 08005KT CAVOK 02/M03 Q1016

Aika: 11:01 (10:01 UTC)


TAF: puuttuu

Säähavainnot ja -ennusteet yli 4000 lentoasemalta (METAR- ja TAF-raportit).

Käytössä olevat sääasemat on merkitty karttaan keltaisilla ja punaisilla pisteillä.

Aseta hiiri pisteen päälle nähdäksesi sääaseman nimen.

Klikkaa sitten nähdäksesi säähavainnot ja -ennusteet.

Kartan vaihtaminen: klikkaa mustalla rastilla varustettuja vihreitä pisteitä, niin voit zoomata sisään; viivalla varustettua vihreää pistettä, niin voit zoomata ulos tai vihreitä nuolia, niin pääset viereisille kartoille.


METAR-TAF: